Terminal Aerodrome Forecast
Issued by NWS Tulsa, OK

Home | Current Version | Previous Version | Text Only | Print | Product List | Glossary On
Versions: 1 2 3 4 5 6 7 8 9 10 11 12
000
FTUS44 KTSA 062320
TAFFSM
TAF
KFSM 062320Z 0700/0724 21005KT P6SM SKC
     FM070100 VRB03KT P6SM SKC
     FM071500 24008KT P6SM SCT250
     FM072000 28011KT P6SM SCT250=

USA.gov is the U.S. government's official web portal to all federal, state and local government web resources and services.